»·PEaware :: N722SB KCCR-KSLE

N722SB :: KCCR-KSLE

FLIGHT INFORMATION

Flight Status: Arrived
Operator: Privately registered:
United States
More flights under this callsign
Pilot: Timothy L. (25392)
Aircraft: BEECH AIRCRAFT SUPER KING AIR 350
(B350)
More flights by this aircraft type
Origin: KCCR Buchanan
United States
Destination: KSLE McNary
United States
More flights between these airports :: More routes between these airports
Route: +BCHN2 CROIT V195 ILA OED GLORR
File this flight plan on PilotEdge
Remarks:
Altitude:
(Current/Filed)
16,000ft
Speed:
(Current/Filed)
321kts
Departed: 02-Dec-19 03:41 PM
Arrived: 02-Dec-19 05:07 PM
Distance/Time
Traveled:
417nm/1:26
Distance/Time
To Go:
Arrived

Flight Plot

Page will automatically refresh every two minutes.

Flight plan parsing failed; only flown route is shown


Map Options




Map Legend


Flown Route
Filed Route
Departure Airport
Arrival Airport
Navaid (VOR, NDB)
Fix

Horizontal Profiles

Position Reports

Time Latitude Longitude Heading Altitude Ground
Speed
02-Dec-19 15:21 37.988585 -122.060038 203 27ft 0kts
02-Dec-19 15:22 37.988585 -122.060038 203 27ft 0kts
02-Dec-19 15:23 37.988585 -122.060038 203 27ft 0kts
02-Dec-19 15:24 37.988585 -122.060038 203 27ft 0kts
02-Dec-19 15:25 37.988585 -122.060038 203 27ft 0kts
02-Dec-19 15:26 37.988585 -122.060038 203 27ft 0kts
02-Dec-19 15:27 37.988585 -122.060038 203 27ft 0kts
02-Dec-19 15:28 37.988585 -122.060038 203 27ft 0kts
02-Dec-19 15:29 37.988585 -122.060038 203 27ft 0kts
02-Dec-19 15:30 37.988585 -122.060038 203 27ft 0kts
02-Dec-19 15:31 37.988585 -122.060038 203 27ft 0kts
02-Dec-19 15:32 37.988585 -122.060038 203 27ft 0kts
02-Dec-19 15:33 37.988584 -122.060039 203 27ft 0kts
02-Dec-19 15:34 37.988584 -122.060039 203 27ft 0kts
02-Dec-19 15:35 37.988584 -122.060039 203 27ft 0kts
02-Dec-19 15:36 37.986707 -122.060608 203 27ft 13kts
02-Dec-19 15:37 37.983013 -122.061958 159 26ft 8kts
02-Dec-19 15:38 37.982866 -122.061890 160 27ft 0kts
02-Dec-19 15:39 37.982639 -122.060961 24 27ft 14kts
02-Dec-19 15:40 38.010407 -122.049802 8 1153ft 138kts
02-Dec-19 15:41 38.046254 -122.059896 283 3079ft 158kts
02-Dec-19 15:42 38.050130 -122.113180 268 5255ft 150kts
02-Dec-19 15:43 38.054001 -122.165048 267 7457ft 151kts
02-Dec-19 15:44 38.085369 -122.192303 3 9536ft 184kts
02-Dec-19 15:45 38.136659 -122.187239 1 11670ft 186kts
02-Dec-19 15:46 38.189540 -122.182519 0 13626ft 198kts
02-Dec-19 15:47 38.245838 -122.177497 358 15545ft 210kts
02-Dec-19 15:48 38.305426 -122.172170 357 17393ft 220kts
02-Dec-19 15:49 38.368165 -122.166563 357 19077ft 230kts
02-Dec-19 15:50 38.432844 -122.160765 357 20607ft 237kts
02-Dec-19 15:51 38.499422 -122.154795 357 21995ft 242kts
02-Dec-19 15:52 38.567337 -122.148677 356 23327ft 248kts
02-Dec-19 15:53 38.636850 -122.134753 5 24724ft 255kts
02-Dec-19 15:54 38.707259 -122.117518 5 26031ft 259kts
02-Dec-19 15:55 38.783034 -122.098825 6 26131ft 291kts
02-Dec-19 15:56 38.864581 -122.078608 6 26128ft 307kts
02-Dec-19 15:57 38.949994 -122.057403 6 26142ft 317kts
02-Dec-19 15:58 39.038049 -122.035510 6 26165ft 327kts
02-Dec-19 15:59 39.126020 -122.040914 342 26158ft 323kts
02-Dec-19 16:00 39.215421 -122.062921 342 26155ft 328kts
02-Dec-19 16:01 39.305435 -122.085248 342 26153ft 330kts
02-Dec-19 16:03 39.395610 -122.107677 342 26151ft 331kts
02-Dec-19 16:04 39.486088 -122.130246 342 26150ft 332kts
02-Dec-19 16:05 39.577616 -122.153135 342 26162ft 336kts
02-Dec-19 16:06 39.669702 -122.176226 343 26193ft 338kts
02-Dec-19 16:07 39.762271 -122.199500 342 26201ft 339kts
02-Dec-19 16:08 39.855002 -122.222880 342 26202ft 340kts
02-Dec-19 16:09 39.948049 -122.246404 343 26202ft 341kts
02-Dec-19 16:10 40.041247 -122.270034 343 26202ft 341kts
02-Dec-19 16:11 40.134701 -122.293792 343 26195ft 341kts
02-Dec-19 16:12 40.227325 -122.317547 346 26202ft 340kts
02-Dec-19 16:13 40.320223 -122.341152 345 26190ft 340kts
02-Dec-19 16:14 40.413242 -122.364996 345 26190ft 340kts
02-Dec-19 16:15 40.506331 -122.388931 346 26190ft 340kts
02-Dec-19 16:16 40.598828 -122.412777 346 26191ft 339kts
02-Dec-19 16:17 40.691289 -122.436684 346 26193ft 338kts
02-Dec-19 16:18 40.783526 -122.460610 346 26199ft 337kts
02-Dec-19 16:19 40.875552 -122.484538 346 26201ft 336kts
02-Dec-19 16:20 40.967101 -122.508396 346 26201ft 336kts
02-Dec-19 16:20 41.043871 -122.528471 346 26201ft 337kts
02-Dec-19 16:22 41.149813 -122.556238 346 26198ft 337kts
02-Dec-19 16:23 41.241697 -122.580401 346 26198ft 336kts
02-Dec-19 16:23 41.318099 -122.600547 346 26193ft 335kts
02-Dec-19 16:25 41.424784 -122.628759 346 26182ft 335kts
02-Dec-19 16:25 41.500842 -122.648933 346 26180ft 334kts
02-Dec-19 16:26 41.592175 -122.673214 346 26183ft 334kts
02-Dec-19 16:27 41.683497 -122.697567 346 26183ft 334kts
02-Dec-19 16:28 41.774889 -122.722007 346 26183ft 334kts
02-Dec-19 16:29 41.866106 -122.746473 346 26183ft 333kts
02-Dec-19 16:30 41.957072 -122.770943 346 26177ft 333kts
02-Dec-19 16:31 42.047498 -122.795356 347 26157ft 333kts
02-Dec-19 16:32 42.138200 -122.819880 347 26146ft 330kts
02-Dec-19 16:33 42.228184 -122.844300 347 26145ft 329kts
02-Dec-19 16:34 42.317749 -122.868708 347 26146ft 328kts
02-Dec-19 16:35 42.407132 -122.893116 347 26147ft 327kts
02-Dec-19 16:36 42.497472 -122.904854 357 26150ft 326kts
02-Dec-19 16:37 42.588235 -122.908478 357 26152ft 326kts
02-Dec-19 16:38 42.678733 -122.912014 358 26163ft 325kts
02-Dec-19 16:39 42.769174 -122.915554 358 26169ft 324kts
02-Dec-19 16:40 42.859024 -122.919080 358 26168ft 323kts
02-Dec-19 16:41 42.948684 -122.922607 358 26182ft 322kts
02-Dec-19 16:42 43.038454 -122.926157 358 26162ft 322kts
02-Dec-19 16:43 43.128183 -122.929713 359 26129ft 322kts
02-Dec-19 16:44 43.217756 -122.933262 359 26134ft 321kts
02-Dec-19 16:45 43.306956 -122.936812 359 26124ft 321kts
02-Dec-19 16:46 43.396276 -122.940389 359 26131ft 320kts
02-Dec-19 16:47 43.485357 -122.943961 359 26135ft 319kts
02-Dec-19 16:48 43.574118 -122.947531 359 26145ft 318kts
02-Dec-19 16:49 43.663959 -122.951122 359 25289ft 330kts
02-Dec-19 16:50 43.754978 -122.954815 358 23775ft 328kts
02-Dec-19 16:51 43.846439 -122.958533 358 22282ft 329kts
02-Dec-19 16:52 43.937647 -122.962249 358 20783ft 328kts
02-Dec-19 16:53 44.028817 -122.965968 357 19278ft 324kts
02-Dec-19 16:54 44.118254 -122.969624 357 17756ft 317kts
02-Dec-19 16:55 44.206161 -122.973231 357 15941ft 314kts
02-Dec-19 16:56 44.291752 -122.976747 356 14012ft 301kts
02-Dec-19 16:57 44.374462 -122.980185 356 12103ft 294kts
02-Dec-19 16:58 44.456344 -122.983604 356 10197ft 293kts
02-Dec-19 16:59 44.536977 -122.986953 356 8285ft 286kts
02-Dec-19 17:00 44.615489 -122.990219 356 6558ft 278kts
02-Dec-19 17:01 44.692242 -122.993973 354 4874ft 274kts
02-Dec-19 17:02 44.766224 -123.003411 354 3433ft 254kts
02-Dec-19 17:03 44.831893 -123.004662 1 1663ft 214kts
02-Dec-19 17:04 44.880098 -123.004046 0 636ft 140kts
02-Dec-19 17:05 44.910644 -123.003402 1 205ft 47kts
02-Dec-19 17:06 44.911342 -123.001009 149 205ft 14kts
02-Dec-19 17:07 44.912149 -123.003436 317 204ft 12kts
02-Dec-19 17:08 44.909183 -123.003598 227 206ft 12kts
02-Dec-19 17:09 44.910571 -123.006511 343 204ft 10kts
02-Dec-19 17:10 44.910969 -123.007766 341 203ft 0kts

Navigation Log

Ident Type
Flight plan parsing failed, navigation log unavailable